Time;durP1;ratioP1;P1;durP2;ratioP2;P2;SDS_P1;SDS_P2;PMS_P1;PMS_P2;Temp;Humidity;BMP_temperature;BMP_pressure;BME280_temperature;BME280_humidity;BME280_pressure;Samples;Min_cycle;Max_cycle;Signal;HPM_P1;HPM_P2
2021/01/15 00:02:00;;;;;;;14.02;2.00;;;7.40;99.90;;;;;;6245000;23;20087;-93
2021/01/15 00:04:26;;;;;;;15.02;2.20;;;7.40;99.90;;;;;;6244512;23;20028;-93
2021/01/15 00:06:58;;;;;;;11.85;1.95;;;7.40;99.90;;;;;;6244714;23;20012;-93
2021/01/15 00:09:25;;;;;;;10.20;1.95;;;7.30;99.90;;;;;;6244393;23;20016;-93
2021/01/15 00:11:52;;;;;;;8.98;1.77;;;7.30;99.90;;;;;;6244208;23;20095;-93
2021/01/15 00:14:18;;;;;;;12.02;1.80;;;7.30;99.90;;;;;;6244880;23;20043;-93
2021/01/15 00:16:45;;;;;;;15.65;2.10;;;7.30;99.90;;;;;;6244943;23;20032;-93
2021/01/15 00:19:12;;;;;;;14.80;2.22;;;7.30;99.90;;;;;;6244933;23;20016;-92
2021/01/15 00:21:50;;;;;;;12.82;2.10;;;7.30;99.90;;;;;;6244784;23;20024;-93
2021/01/15 00:24:19;;;;;;;15.18;2.63;;;7.30;99.90;;;;;;6244822;23;20016;-92
2021/01/15 00:26:47;;;;;;;12.98;1.80;;;7.30;99.90;;;;;;6245145;23;20042;-93
2021/01/15 00:29:15;;;;;;;15.45;2.03;;;7.30;99.90;;;;;;6244567;23;20023;-93
2021/01/15 00:31:44;;;;;;;9.95;2.70;;;7.30;99.90;;;;;;6245713;22;20016;-92
2021/01/15 00:34:12;;;;;;;;;;;7.30;99.90;;;;;;6245213;23;20099;-92
2021/01/15 00:36:40;;;;;;;13.13;2.28;;;7.30;99.90;;;;;;6244575;23;19915;-93
2021/01/15 00:39:08;;;;;;;13.18;2.05;;;7.30;99.90;;;;;;6244507;23;20458;-93
2021/01/15 00:41:36;;;;;;;16.42;2.13;;;7.30;99.90;;;;;;6244281;23;20035;-93
2021/01/15 00:44:04;;;;;;;16.10;2.10;;;7.30;99.90;;;;;;6244445;23;20023;-93
2021/01/15 00:46:33;;;;;;;18.40;1.73;;;7.30;99.90;;;;;;6245598;23;20444;-93
2021/01/15 00:49:03;;;;;;;18.50;2.42;;;7.30;99.90;;;;;;6247220;23;20032;-93
2021/01/15 00:51:30;;;;;;;15.20;2.40;;;7.30;99.90;;;;;;6247266;23;20016;-92
2021/01/15 00:53:58;;;;;;;10.63;1.90;;;7.30;99.90;;;;;;6246139;23;20032;-93
2021/01/15 00:56:25;;;;;;;16.02;1.88;;;7.30;99.90;;;;;;6246537;23;20099;-92
2021/01/15 00:58:52;;;;;;;17.02;2.33;;;7.20;99.90;;;;;;6246737;23;20086;-92
2021/01/15 01:01:22;;;;;;;11.90;1.98;;;7.30;99.90;;;;;;6246620;23;20020;-93
2021/01/15 01:03:50;;;;;;;13.90;2.38;;;7.30;99.90;;;;;;6245746;23;20016;-93
2021/01/15 01:06:19;;;;;;;15.77;2.38;;;7.30;99.90;;;;;;6245872;23;20051;-92
2021/01/15 01:08:47;;;;;;;13.10;1.67;;;7.20;99.90;;;;;;6245937;23;20031;-93
2021/01/15 01:11:24;;;;;;;11.13;1.73;;;7.20;99.90;;;;;;6245659;23;20012;-93
2021/01/15 01:13:53;;;;;;;14.45;1.80;;;7.20;99.90;;;;;;6246558;23;20443;-93
2021/01/15 01:16:21;;;;;;;21.05;2.35;;;7.20;99.90;;;;;;6246323;23;20020;-93
2021/01/15 01:18:48;;;;;;;18.55;3.13;;;7.20;99.90;;;;;;6245837;23;20012;-92
2021/01/15 01:21:15;;;;;;;11.85;2.35;;;7.20;99.90;;;;;;6245900;23;20024;-92
2021/01/15 01:23:42;;;;;;;8.60;1.85;;;7.20;99.90;;;;;;6245692;23;20027;-92
2021/01/15 01:26:10;;;;;;;12.63;2.00;;;7.20;99.90;;;;;;6245982;23;20020;-93
2021/01/15 01:28:38;;;;;;;9.07;1.93;;;7.20;99.90;;;;;;6246226;23;20066;-93
2021/01/15 01:31:05;;;;;;;15.30;2.13;;;7.20;99.90;;;;;;6246376;23;20020;-92
2021/01/15 01:33:31;;;;;;;13.05;1.70;;;7.20;99.90;;;;;;6246524;23;20016;-92
2021/01/15 01:35:58;;;;;;;14.30;1.88;;;7.20;99.90;;;;;;6250906;23;20023;-93
2021/01/15 01:38:25;;;;;;;14.10;2.72;;;7.20;99.90;;;;;;6250868;23;20016;-93
2021/01/15 01:40:52;;;;;;;13.98;2.28;;;7.20;99.90;;;;;;6251686;22;20020;-93
2021/01/15 01:43:18;;;;;;;14.77;2.00;;;7.20;99.90;;;;;;6247894;23;20918;-92
2021/01/15 01:45:45;;;;;;;12.13;1.60;;;7.20;99.90;;;;;;6246315;23;20035;-93
2021/01/15 01:48:12;;;;;;;15.25;1.92;;;7.10;99.90;;;;;;6245850;23;20023;-92
2021/01/15 01:50:42;;;;;;;12.98;1.90;;;7.10;99.90;;;;;;6245626;23;20378;-93
2021/01/15 01:53:18;;;;;;;9.55;1.75;;;7.10;99.90;;;;;;6245997;23;20031;-93
2021/01/15 01:55:47;;;;;;;13.48;2.10;;;7.00;99.90;;;;;;6245595;23;20016;-93
2021/01/15 01:58:17;;;;;;;13.60;1.58;;;7.00;99.90;;;;;;6246110;23;20091;-93
2021/01/15 02:00:47;;;;;;;22.67;2.72;;;6.90;99.90;;;;;;6245393;23;20024;-93
2021/01/15 02:03:16;;;;;;;12.25;1.50;;;6.90;99.90;;;;;;6245406;23;20091;-93
2021/01/15 02:05:42;;;;;;;14.48;1.45;;;6.90;99.90;;;;;;6245171;23;20301;-92
2021/01/15 02:08:09;;;;;;;14.50;1.77;;;6.90;99.90;;;;;;6245626;23;20087;-93
2021/01/15 02:10:45;;;;;;;14.18;2.15;;;6.80;99.90;;;;;;6245607;23;20022;-93
2021/01/15 02:13:21;;;;;;;14.10;1.80;;;6.80;99.90;;;;;;6244725;23;20023;-93
2021/01/15 02:15:58;;;;;;;16.67;2.63;;;6.80;99.90;;;;;;6245207;23;20016;-93
2021/01/15 02:18:51;;;;;;;15.98;1.88;;;6.80;99.90;;;;;;6245954;23;20022;-92
2021/01/15 02:21:46;;;;;;;8.85;1.52;;;6.70;99.90;;;;;;6245065;23;20024;-92
2021/01/15 02:24:18;;;;;;;10.07;1.60;;;6.70;99.90;;;;;;6129530;23;20037;-93
2021/01/15 02:27:00;;;;;;;12.52;2.00;;;6.70;99.90;;;;;;6154000;23;20021;-92
2021/01/15 02:29:30;;;;;;;13.10;1.50;;;6.70;99.90;;;;;;6154356;23;20466;-93
2021/01/15 02:32:20;;;;;;;15.77;2.13;;;6.60;99.90;;;;;;6130535;23;20437;-93
2021/01/15 02:35:03;;;;;;;17.95;1.88;;;6.60;99.90;;;;;;6129649;23;20442;-93
2021/01/15 02:37:56;;;;;;;11.68;1.52;;;6.60;99.90;;;;;;6129611;23;20446;-93
2021/01/15 02:40:41;;;;;;;14.10;1.52;;;6.60;99.90;;;;;;6154225;23;20095;-93
2021/01/15 02:43:08;;;;;;;11.85;2.10;;;6.50;99.90;;;;;;6129974;23;20325;-93
2021/01/15 02:45:35;;;;;;;12.20;2.13;;;6.50;99.90;;;;;;6129260;23;20018;-93
2021/01/15 02:48:09;;;;;;;12.55;1.75;;;6.40;99.90;;;;;;6129348;23;20014;-93
2021/01/15 02:50:37;;;;;;;14.57;1.88;;;6.40;99.90;;;;;;6129413;23;20025;-93
2021/01/15 02:53:03;;;;;;;7.82;1.85;;;6.40;99.90;;;;;;6129807;23;20104;-93
2021/01/15 02:55:30;;;;;;;13.75;2.20;;;6.40;99.90;;;;;;6129418;23;20049;-93
2021/01/15 02:57:57;;;;;;;17.42;1.83;;;6.30;99.90;;;;;;6129849;23;20021;-92
2021/01/15 03:00:23;;;;;;;11.05;1.70;;;6.30;99.90;;;;;;6145372;23;20095;-92
2021/01/15 03:03:08;;;;;;;13.02;1.77;;;6.20;99.90;;;;;;6245061;23;20020;-92
2021/01/15 03:05:52;;;;;;;12.70;1.88;;;6.20;99.90;;;;;;6244795;23;20024;-93
2021/01/15 03:08:22;;;;;;;9.68;1.95;;;6.20;99.90;;;;;;6245225;23;20018;-93
2021/01/15 03:10:51;;;;;;;9.68;1.67;;;6.10;99.90;;;;;;6244129;23;20371;-93
2021/01/15 03:13:18;;;;;;;11.15;1.60;;;6.10;99.90;;;;;;6245844;23;20027;-93
2021/01/15 03:15:48;;;;;;;21.40;1.92;;;6.10;99.90;;;;;;6244853;23;20035;-93
2021/01/15 03:18:15;;;;;;;12.27;1.50;;;6.10;99.90;;;;;;6245121;23;20016;-93
2021/01/15 03:20:42;;;;;;;16.20;1.58;;;6.10;99.90;;;;;;6244899;23;20333;-92
2021/01/15 03:23:10;;;;;;;12.32;1.65;;;6.20;99.90;;;;;;6246160;23;20028;-93
2021/01/15 03:25:36;;;;;;;15.23;2.47;;;6.30;99.90;;;;;;6245275;23;20091;-92
2021/01/15 03:28:03;;;;;;;12.10;2.03;;;6.30;99.90;;;;;;6245078;23;20136;-93
2021/01/15 03:30:31;;;;;;;15.23;1.70;;;6.40;99.90;;;;;;6245077;23;20119;-93
2021/01/15 03:33:02;;;;;;;15.48;2.30;;;6.40;99.90;;;;;;6244901;23;20095;-93
2021/01/15 03:35:30;;;;;;;15.25;2.72;;;6.50;99.90;;;;;;6245315;23;20020;-93
2021/01/15 03:38:01;;;;;;;13.90;2.83;;;6.60;99.90;;;;;;6244911;23;20023;-93
2021/01/15 03:40:30;;;;;;;18.55;2.40;;;6.70;99.90;;;;;;6245217;23;20071;-93
2021/01/15 03:42:58;;;;;;;14.88;2.13;;;6.80;99.90;;;;;;6244866;23;20013;-93
2021/01/15 03:45:25;;;;;;;22.50;2.60;;;6.90;99.90;;;;;;6244662;23;20019;-93
2021/01/15 03:47:52;;;;;;;12.57;2.70;;;7.00;99.90;;;;;;6244592;23;20459;-93
2021/01/15 03:50:19;;;;;;;14.80;2.42;;;7.00;99.90;;;;;;6244747;23;20092;-93
2021/01/15 03:52:47;;;;;;;19.23;2.47;;;7.10;99.90;;;;;;6244584;23;20062;-93
2021/01/15 03:55:15;;;;;;;13.83;2.30;;;7.20;99.90;;;;;;6245135;23;20039;-93
2021/01/15 03:57:42;;;;;;;15.57;2.30;;;7.20;99.90;;;;;;6244807;23;20535;-92
2021/01/15 04:00:10;;;;;;;18.27;2.55;;;7.20;99.90;;;;;;6244155;23;20016;-93
2021/01/15 04:02:36;;;;;;;19.45;2.60;;;7.20;99.90;;;;;;6244596;23;20017;-93
2021/01/15 04:05:04;;;;;;;12.35;2.35;;;7.20;99.90;;;;;;6244478;23;20452;-93
2021/01/15 04:07:30;;;;;;;14.45;2.28;;;7.10;99.90;;;;;;6244931;23;20023;-93
2021/01/15 04:09:57;;;;;;;19.60;2.50;;;7.10;99.90;;;;;;6245301;23;20039;-93
2021/01/15 04:12:23;;;;;;;14.30;2.45;;;7.10;99.90;;;;;;6244089;23;20012;-93
2021/01/15 04:14:50;;;;;;;17.73;2.20;;;7.10;99.90;;;;;;6245398;23;20026;-93
2021/01/15 04:17:17;;;;;;;18.20;2.35;;;7.10;99.90;;;;;;6244803;23;20016;-93
2021/01/15 04:19:44;;;;;;;18.48;3.03;;;7.10;99.90;;;;;;6244933;23;20022;-94
2021/01/15 04:22:10;;;;;;;17.00;3.65;;;7.10;99.90;;;;;;6246934;23;20016;-93
2021/01/15 04:24:39;;;;;;;18.50;2.30;;;7.00;99.90;;;;;;6246775;23;20020;-93
2021/01/15 04:27:06;;;;;;;12.55;2.50;;;7.00;99.90;;;;;;6246615;23;20020;-93
2021/01/15 04:29:33;;;;;;;13.20;2.15;;;7.00;99.90;;;;;;6246616;23;20019;-93
2021/01/15 04:31:59;;;;;;;18.38;2.15;;;6.90;99.90;;;;;;6246644;23;20332;-93
2021/01/15 04:34:26;;;;;;;13.57;2.10;;;6.90;99.90;;;;;;6246871;23;20027;-93
2021/01/15 04:36:53;;;;;;;13.00;2.00;;;6.90;99.90;;;;;;6246528;23;20301;-93
2021/01/15 04:39:19;;;;;;;18.08;3.25;;;6.90;99.90;;;;;;6246542;23;20020;-93
2021/01/15 04:41:52;;;;;;;15.70;3.15;;;6.90;99.90;;;;;;6246472;23;20019;-93
2021/01/15 04:44:18;;;;;;;16.05;2.50;;;6.90;99.90;;;;;;6246542;23;20020;-93
2021/01/15 04:46:47;;;;;;;17.92;2.40;;;6.90;99.90;;;;;;6246404;23;20047;-93
2021/01/15 04:49:15;;;;;;;14.68;3.15;;;6.90;99.90;;;;;;6246459;23;20024;-93
2021/01/15 04:51:41;;;;;;;20.55;2.53;;;6.90;99.90;;;;;;6246704;23;20013;-93
2021/01/15 04:54:13;;;;;;;16.25;2.20;;;6.90;99.90;;;;;;6246617;23;20027;-93
2021/01/15 04:56:50;;;;;;;13.82;2.17;;;6.90;99.90;;;;;;6246278;23;20456;-93
2021/01/15 04:59:18;;;;;;;16.20;2.40;;;7.00;99.90;;;;;;6246120;23;20087;-93
2021/01/15 05:01:52;;;;;;;23.25;2.83;;;7.00;99.90;;;;;;6246200;23;20022;-93
2021/01/15 05:04:19;;;;;;;12.13;2.03;;;7.00;99.90;;;;;;6247263;23;20027;-93
2021/01/15 05:06:50;;;;;;;20.70;2.25;;;7.00;99.90;;;;;;6246662;23;20042;-93
2021/01/15 05:09:23;;;;;;;9.52;1.83;;;7.00;99.90;;;;;;6246315;23;20027;-92
2021/01/15 05:11:51;;;;;;;17.73;2.75;;;7.10;99.90;;;;;;6245257;23;20020;-93
2021/01/15 05:14:20;;;;;;;12.03;1.80;;;7.10;99.90;;;;;;6246491;23;20020;-93
2021/01/15 05:16:49;;;;;;;18.98;2.35;;;7.10;99.90;;;;;;6246459;23;20466;-93
2021/01/15 05:19:17;;;;;;;18.10;2.67;;;7.10;99.90;;;;;;6246893;23;20012;-93
2021/01/15 05:21:50;;;;;;;15.57;1.80;;;7.20;99.90;;;;;;6246011;23;20020;-92
2021/01/15 05:24:18;;;;;;;16.48;2.05;;;7.20;99.90;;;;;;6246318;23;20078;-92
2021/01/15 05:26:45;;;;;;;16.10;2.10;;;7.20;99.90;;;;;;6245912;23;20082;-92
2021/01/15 05:29:12;;;;;;;10.02;1.98;;;7.30;99.90;;;;;;6246838;23;20012;-92
2021/01/15 05:31:54;;;;;;;12.05;2.17;;;7.30;99.90;;;;;;6250125;23;20020;-92
2021/01/15 05:34:24;;;;;;;15.07;2.20;;;7.30;99.90;;;;;;6249665;23;20026;-93
2021/01/15 05:36:52;;;;;;;14.10;2.63;;;7.40;99.90;;;;;;6248557;23;20019;-92
2021/01/15 05:39:27;;;;;;;13.48;2.00;;;7.30;99.90;;;;;;6246943;23;20074;-92
2021/01/15 05:42:01;;;;;;;14.68;2.00;;;7.40;99.90;;;;;;6245818;23;20035;-92
2021/01/15 05:44:33;;;;;;;15.52;2.22;;;7.30;99.90;;;;;;6246307;23;20320;-92
2021/01/15 05:47:01;;;;;;;18.13;2.20;;;7.40;99.90;;;;;;6246395;23;20047;-92
2021/01/15 05:49:28;;;;;;;15.63;2.45;;;7.30;99.90;;;;;;6246973;23;20053;-92
2021/01/15 05:52:07;;;;;;;12.50;2.20;;;7.30;99.90;;;;;;6255681;23;20020;-92
2021/01/15 05:54:35;;;;;;;19.83;2.80;;;7.30;99.90;;;;;;6256252;23;20030;-91
2021/01/15 05:57:04;;;;;;;23.35;2.75;;;7.30;99.90;;;;;;6246590;23;20023;-92
2021/01/15 05:59:36;;;;;;;;;;;7.20;99.90;;;;;;6246340;23;20027;-92
2021/01/15 06:02:06;;;;;;;14.90;2.03;;;7.20;99.90;;;;;;6245520;23;19927;-92
2021/01/15 06:04:33;;;;;;;11.95;2.20;;;7.10;99.90;;;;;;6247294;23;20024;-92
2021/01/15 06:07:08;;;;;;;18.52;2.72;;;7.10;99.90;;;;;;6245962;23;20016;-92
2021/01/15 06:09:40;;;;;;;13.00;1.98;;;7.10;99.90;;;;;;6245645;23;20022;-92
2021/01/15 06:12:12;;;;;;;14.98;2.42;;;7.10;99.90;;;;;;6244669;23;20027;-92
2021/01/15 06:14:57;;;;;;;14.60;2.03;;;7.10;99.90;;;;;;6245745;23;20336;-92
2021/01/15 06:17:26;;;;;;;12.02;2.13;;;7.10;99.90;;;;;;6246567;23;20043;-90
2021/01/15 06:20:02;;;;;;;20.90;2.45;;;7.10;99.90;;;;;;6245905;23;20020;-92
2021/01/15 06:22:30;;;;;;;12.32;1.88;;;7.00;99.90;;;;;;6245893;23;20017;-92
2021/01/15 06:25:07;;;;;;;15.98;2.63;;;7.10;99.90;;;;;;6245697;23;20024;-92
2021/01/15 06:27:41;;;;;;;16.55;2.58;;;7.10;99.90;;;;;;6245957;23;20019;-92
2021/01/15 06:30:20;;;;;;;16.30;2.35;;;7.10;99.90;;;;;;6245226;23;20016;-91
2021/01/15 06:32:47;;;;;;;17.33;2.28;;;7.20;99.90;;;;;;6245101;23;20019;-92
2021/01/15 06:35:26;;;;;;;14.98;2.33;;;7.20;99.90;;;;;;6245303;23;20016;-92
2021/01/15 06:38:20;;;;;;;16.98;2.38;;;7.20;99.90;;;;;;6245565;23;20381;-92
2021/01/15 06:40:49;;;;;;;11.48;1.90;;;7.20;99.90;;;;;;6240843;23;20433;-93
2021/01/15 06:43:26;;;;;;;12.13;2.20;;;7.20;99.90;;;;;;6245166;23;20012;-92
2021/01/15 06:45:56;;;;;;;12.93;3.10;;;7.30;99.90;;;;;;6245400;23;20022;-92
2021/01/15 06:48:36;;;;;;;14.75;1.67;;;7.30;99.90;;;;;;6245276;23;20444;-92
2021/01/15 06:51:05;;;;;;;14.40;2.28;;;7.30;99.90;;;;;;6245318;23;20016;-92
2021/01/15 06:53:33;;;;;;;14.75;2.30;;;7.30;99.90;;;;;;6244542;23;20046;-92
2021/01/15 06:56:02;;;;;;;16.77;1.98;;;7.30;99.90;;;;;;6245445;23;20020;-93
2021/01/15 06:58:29;;;;;;;11.35;1.77;;;7.30;99.90;;;;;;6245516;23;20013;-92
2021/01/15 07:01:16;;;;;;;12.63;2.10;;;7.30;99.90;;;;;;6245530;23;20016;-93
2021/01/15 07:04:05;;;;;;;11.50;1.65;;;7.30;99.90;;;;;;6245754;23;20008;-93
2021/01/15 07:06:32;;;;;;;;;;;7.30;99.90;;;;;;6247756;23;20020;-92
2021/01/15 07:09:01;;;;;;;15.25;1.90;;;7.20;99.90;;;;;;6261262;23;19922;-93
2021/01/15 07:11:29;;;;;;;;;;;7.20;99.90;;;;;;6247786;23;20024;-92
2021/01/15 07:13:57;;;;;;;14.35;2.10;;;7.20;99.90;;;;;;6243224;23;19934;-92
2021/01/15 07:16:38;;;;;;;18.05;2.10;;;7.10;99.90;;;;;;6243720;23;20024;-92
2021/01/15 07:19:05;;;;;;;18.13;1.88;;;7.10;99.90;;;;;;6243924;23;20016;-92
2021/01/15 07:25:20;;;;;;;;;;;7.10;99.90;;;;;;6246863;23;20093;-92
2021/01/15 07:27:48;;;;;;;10.25;1.60;;;7.10;99.90;;;;;;6244702;23;19922;-92
2021/01/15 07:30:25;;;;;;;10.25;2.42;;;7.10;99.90;;;;;;6244775;23;20092;-92
2021/01/15 07:32:57;;;;;;;12.88;2.10;;;7.10;99.90;;;;;;6245357;23;20023;-92
2021/01/15 07:35:26;;;;;;;12.93;2.10;;;7.10;99.90;;;;;;6244527;23;20016;-93
2021/01/15 07:38:12;;;;;;;;;;;7.10;99.90;;;;;;6245743;23;20016;-91
2021/01/15 07:40:40;;;;;;;15.32;1.85;;;7.10;99.90;;;;;;6244809;23;19919;-92
2021/01/15 07:43:30;;;;;;;9.25;1.73;;;7.10;99.90;;;;;;6244838;23;20070;-92
2021/01/15 07:46:03;;;;;;;13.70;1.80;;;7.10;99.90;;;;;;6245588;23;20027;-92
2021/01/15 07:48:30;;;;;;;12.25;1.90;;;7.10;99.90;;;;;;6244875;23;20073;-92
2021/01/15 07:50:57;;;;;;;14.68;1.80;;;7.10;99.90;;;;;;6244989;23;20857;-92
2021/01/15 07:53:27;;;;;;;8.55;1.65;;;7.10;99.90;;;;;;6244802;23;20035;-92
2021/01/15 07:56:01;;;;;;;9.82;2.20;;;7.10;99.90;;;;;;6247454;23;20094;-92
2021/01/15 07:58:39;;;;;;;15.85;2.35;;;7.10;99.90;;;;;;6247798;23;20012;-92
2021/01/15 08:01:17;;;;;;;12.30;1.95;;;7.10;99.90;;;;;;6247557;23;20043;-92
2021/01/15 08:03:49;;;;;;;19.40;2.42;;;7.10;99.90;;;;;;6246884;23;20020;-92
2021/01/15 08:06:17;;;;;;;14.32;2.20;;;7.10;99.90;;;;;;6247005;23;20383;-92
2021/01/15 08:08:56;;;;;;;12.57;2.00;;;7.10;99.90;;;;;;6247451;23;20087;-92
2021/01/15 08:11:25;;;;;;;10.77;1.77;;;7.00;99.90;;;;;;6246454;23;20049;-92
2021/01/15 08:14:12;;;;;;;12.80;1.55;;;7.00;99.90;;;;;;6247507;23;20036;-92
2021/01/15 08:16:43;;;;;;;10.43;2.25;;;7.00;99.90;;;;;;6247803;23;20036;-92
2021/01/15 08:19:24;;;;;;;11.77;1.65;;;6.90;99.90;;;;;;6248220;23;20023;-92
2021/01/15 08:21:51;;;;;;;10.00;1.98;;;6.90;99.90;;;;;;6249743;23;20024;-92
2021/01/15 08:24:18;;;;;;;15.20;2.42;;;6.80;99.90;;;;;;6259794;23;20031;-92
2021/01/15 08:26:52;;;;;;;16.65;1.80;;;6.80;99.90;;;;;;6257513;23;20063;-91
2021/01/15 08:29:22;;;;;;;18.33;2.08;;;6.80;99.90;;;;;;6247726;23;20057;-92
2021/01/15 08:31:56;;;;;;;12.45;2.17;;;6.80;99.90;;;;;;6246894;23;20020;-92
2021/01/15 08:34:30;;;;;;;14.82;1.92;;;6.80;99.90;;;;;;6246813;23;20012;-92
2021/01/15 08:37:03;;;;;;;18.52;2.30;;;6.70;99.90;;;;;;6246931;23;20016;-92
2021/01/15 08:39:45;;;;;;;10.02;2.30;;;6.70;99.90;;;;;;6246732;23;20386;-92
2021/01/15 08:42:13;;;;;;;16.13;2.55;;;6.70;99.90;;;;;;6245765;23;20020;-92
2021/01/15 08:44:40;;;;;;;12.80;2.45;;;6.70;99.90;;;;;;6245866;23;20020;-92
2021/01/15 08:47:12;;;;;;;15.02;2.15;;;6.70;99.90;;;;;;6246668;23;20016;-92
2021/01/15 08:49:49;;;;;;;16.80;2.60;;;6.70;99.90;;;;;;6245669;23;20395;-92
2021/01/15 08:52:24;;;;;;;11.95;2.63;;;6.70;99.90;;;;;;6244327;23;20017;-92
2021/01/15 08:54:52;;;;;;;14.90;3.17;;;6.70;99.90;;;;;;6246102;23;20516;-93
2021/01/15 08:57:28;;;;;;;18.60;2.75;;;6.70;99.90;;;;;;6245425;23;20016;-92
2021/01/15 09:00:06;;;;;;;19.73;2.63;;;6.70;99.90;;;;;;6246463;23;20032;-92
2021/01/15 09:02:37;;;;;;;18.17;3.00;;;6.70;99.90;;;;;;6246138;23;20044;-92
2021/01/15 09:05:09;;;;;;;11.57;2.33;;;6.70;99.90;;;;;;6246170;23;20028;-92
2021/01/15 09:07:43;;;;;;;11.00;2.33;;;6.80;99.90;;;;;;6246090;23;20024;-93
2021/01/15 09:10:16;;;;;;;15.05;2.70;;;6.80;99.90;;;;;;6246591;23;20023;-92
2021/01/15 09:12:45;;;;;;;14.65;3.03;;;6.90;99.90;;;;;;6245377;23;20022;-92
2021/01/15 09:15:25;;;;;;;14.68;3.05;;;6.90;99.90;;;;;;6246126;23;20016;-92
2021/01/15 09:17:53;;;;;;;11.90;2.08;;;7.00;99.90;;;;;;6246638;23;20016;-93
2021/01/15 09:20:20;;;;;;;10.70;2.70;;;7.10;99.90;;;;;;6246605;23;20030;-92
2021/01/15 09:22:47;;;;;;;17.42;2.33;;;7.20;99.90;;;;;;6246183;23;20078;-93
2021/01/15 09:25:15;;;;;;;13.65;2.20;;;7.30;99.90;;;;;;6246544;23;20463;-93
2021/01/15 09:27:43;;;;;;;15.73;2.83;;;7.40;99.90;;;;;;6246017;23;20095;-92
2021/01/15 09:30:11;;;;;;;18.50;2.65;;;7.50;99.90;;;;;;6246491;23;20434;-92
2021/01/15 09:32:45;;;;;;;11.70;1.90;;;7.60;99.90;;;;;;6246179;23;20016;-92
2021/01/15 09:35:13;;;;;;;13.05;2.10;;;7.70;99.90;;;;;;6247065;23;20019;-93
2021/01/15 09:37:40;;;;;;;13.13;2.10;;;7.80;99.90;;;;;;6256287;23;20031;-93
2021/01/15 09:40:09;;;;;;;11.75;2.15;;;7.90;99.90;;;;;;6260070;23;20028;-93
2021/01/15 09:42:36;;;;;;;11.10;2.13;;;8.00;99.90;;;;;;6247963;23;20510;-93
2021/01/15 09:45:04;;;;;;;15.63;2.10;;;8.10;99.90;;;;;;6246564;23;20023;-92
2021/01/15 09:47:31;;;;;;;8.75;1.85;;;8.20;99.90;;;;;;6246238;23;20019;-92
2021/01/15 09:49:58;;;;;;;11.18;2.30;;;8.20;99.90;;;;;;6246159;23;20444;-93
2021/01/15 09:52:31;;;;;;;10.38;1.88;;;8.20;99.90;;;;;;6246103;23;20012;-93
2021/01/15 09:55:01;;;;;;;10.25;2.38;;;8.30;99.90;;;;;;6246157;23;20020;-93
2021/01/15 09:57:28;;;;;;;12.75;2.00;;;8.30;99.90;;;;;;6247023;23;20016;-93
2021/01/15 09:59:55;;;;;;;16.02;2.40;;;8.30;99.90;;;;;;6245559;23;20065;-93
2021/01/15 10:02:21;;;;;;;10.27;1.65;;;8.30;99.90;;;;;;6245677;23;20016;-92
2021/01/15 10:04:52;;;;;;;13.65;2.20;;;8.30;99.90;;;;;;6246272;23;20099;-93
2021/01/15 10:07:18;;;;;;;11.70;2.70;;;8.40;99.90;;;;;;6246564;23;20028;-92
2021/01/15 10:09:46;;;;;;;11.52;2.15;;;8.40;99.90;;;;;;6245639;23;20015;-93
2021/01/15 10:12:15;;;;;;;8.23;2.13;;;8.40;99.90;;;;;;6245183;23;20020;-93
2021/01/15 10:14:42;;;;;;;10.10;1.98;;;8.50;99.90;;;;;;6245914;23;20380;-92
2021/01/15 10:17:09;;;;;;;12.73;2.05;;;8.60;99.90;;;;;;6245685;23;20027;-92
2021/01/15 10:19:48;;;;;;;9.20;1.88;;;8.60;99.90;;;;;;6244848;23;20635;-92
2021/01/15 10:22:15;;;;;;;11.57;2.20;;;8.70;99.90;;;;;;6245516;23;20024;-93
2021/01/15 10:24:42;;;;;;;15.15;2.33;;;8.70;99.90;;;;;;6245088;23;20444;-93
2021/01/15 10:27:08;;;;;;;12.27;1.42;;;8.80;99.90;;;;;;6245814;23;20044;-93
2021/01/15 10:29:35;;;;;;;10.75;1.80;;;8.80;99.90;;;;;;6245413;23;20324;-93
2021/01/15 10:32:02;;;;;;;11.68;1.83;;;8.90;99.90;;;;;;6245464;23;20429;-93
2021/01/15 10:34:30;;;;;;;11.05;1.92;;;8.90;99.90;;;;;;6245782;23;20372;-93
2021/01/15 10:36:57;;;;;;;8.57;1.55;;;9.00;99.90;;;;;;6246018;23;20023;-93
2021/01/15 10:39:24;;;;;;;12.80;1.58;;;9.10;99.90;;;;;;6245105;23;20019;-93
2021/01/15 10:41:51;;;;;;;8.00;1.73;;;9.10;99.90;;;;;;6244913;23;20016;-93
2021/01/15 10:44:20;;;;;;;11.13;1.52;;;9.10;99.90;;;;;;6244280;23;20035;-93
2021/01/15 10:46:50;;;;;;;;;;;9.20;99.90;;;;;;6245851;23;20020;-93
2021/01/15 10:49:18;;;;;;;10.98;1.63;;;9.20;99.90;;;;;;6246634;23;19920;-92
2021/01/15 10:51:52;;;;;;;13.93;1.75;;;9.20;99.90;;;;;;6259428;23;20028;-93
2021/01/15 10:54:19;;;;;;;11.38;2.08;;;9.30;99.90;;;;;;6259487;23;20020;-94
2021/01/15 10:56:48;;;;;;;10.50;1.73;;;9.30;99.90;;;;;;6246968;23;20091;-93
2021/01/15 10:59:15;;;;;;;13.90;1.83;;;9.30;99.90;;;;;;6246545;23;20020;-93
2021/01/15 11:01:50;;;;;;;6.25;1.40;;;9.40;99.90;;;;;;6246220;23;20268;-93
2021/01/15 11:04:22;;;;;;;6.68;1.70;;;9.50;99.90;;;;;;6244281;23;20020;-93
2021/01/15 11:06:55;;;;;;;10.75;1.40;;;9.50;99.90;;;;;;6245640;23;20047;-92
2021/01/15 11:09:24;;;;;;;8.55;1.60;;;9.60;99.90;;;;;;6244854;23;20439;-92
2021/01/15 11:12:05;;;;;;;6.38;1.30;;;9.60;99.90;;;;;;6244742;23;20024;-93
2021/01/15 11:14:32;;;;;;;13.52;1.73;;;9.70;99.90;;;;;;6244645;23;20016;-93
2021/01/15 11:16:59;;;;;;;7.47;1.10;;;9.70;99.90;;;;;;6245760;23;20016;-93
2021/01/15 11:19:28;;;;;;;8.85;1.48;;;9.70;99.90;;;;;;6245322;23;20019;-93
2021/01/15 11:21:59;;;;;;;8.05;1.67;;;9.70;99.90;;;;;;6246190;23;20016;-92
2021/01/15 11:24:28;;;;;;;9.05;1.73;;;9.70;99.90;;;;;;6245773;23;20016;-93
2021/01/15 11:26:55;;;;;;;8.85;1.88;;;9.80;99.90;;;;;;6245304;23;20024;-92
2021/01/15 11:29:21;;;;;;;10.25;1.70;;;9.80;99.90;;;;;;6245143;23;20099;-93
2021/01/15 11:31:48;;;;;;;6.43;1.75;;;9.80;99.90;;;;;;6245379;23;20031;-93
2021/01/15 11:34:16;;;;;;;5.63;1.30;;;9.80;99.90;;;;;;6245988;23;20020;-93
2021/01/15 11:36:43;;;;;;;8.00;1.90;;;9.80;99.90;;;;;;6244921;23;20051;-93
2021/01/15 11:39:11;;;;;;;4.30;1.08;;;9.80;99.90;;;;;;6244809;23;20020;-92
2021/01/15 11:41:38;;;;;;;7.85;1.10;;;9.80;99.90;;;;;;6250148;23;20459;-92
2021/01/15 11:44:07;;;;;;;9.65;1.80;;;9.80;99.90;;;;;;6244636;23;20038;-93
2021/01/15 11:46:36;;;;;;;6.43;1.23;;;9.90;99.90;;;;;;6244835;23;20020;-94
2021/01/15 11:49:23;;;;;;;9.52;1.27;;;9.90;99.90;;;;;;6245301;23;20020;-93
2021/01/15 11:52:07;;;;;;;9.02;1.25;;;9.90;99.90;;;;;;6245684;23;20028;-91
2021/01/15 11:54:46;;;;;;;7.03;1.33;;;9.90;99.90;;;;;;6244372;23;20016;-94
2021/01/15 11:57:17;;;;;;;7.20;1.67;;;10.00;99.90;;;;;;6243572;23;20020;-93
2021/01/15 12:02:32;;;;;;;7.90;1.00;;;10.00;99.90;;;;;;6151237;23;20020;-93
2021/01/15 12:05:03;;;;;;;7.13;1.40;;;10.00;99.90;;;;;;6230683;22;20020;-95
2021/01/15 12:07:50;;;;;;;9.52;1.40;;;10.00;99.90;;;;;;6222984;23;20024;-95
2021/01/15 12:10:48;;;;;;;;;;;;;;;;;;;;;
2021/01/15 12:13:25;;;;;;;7.20;1.40;;;10.00;99.90;;;;;;6213546;23;20103;-94
2021/01/15 12:15:58;;;;;;;6.63;1.05;;;10.00;99.90;;;;;;6211712;23;20016;-94
2021/01/15 12:18:29;;;;;;;5.93;1.05;;;10.00;99.90;;;;;;6212098;23;20020;-95
2021/01/15 12:20:56;;;;;;;6.50;1.42;;;10.10;99.90;;;;;;6211429;23;20465;-94
2021/01/15 12:23:23;;;;;;;4.63;0.82;;;10.10;99.90;;;;;;6212749;23;20020;-94
2021/01/15 12:25:53;;;;;;;6.15;1.17;;;10.10;99.90;;;;;;6213224;23;20048;-94
2021/01/15 12:28:20;;;;;;;6.65;1.40;;;10.10;99.90;;;;;;6215901;23;20017;-93
2021/01/15 12:30:50;;;;;;;7.03;1.30;;;10.10;99.90;;;;;;6214414;23;20050;-94
2021/01/15 12:33:18;;;;;;;4.75;1.13;;;10.10;99.90;;;;;;6214877;23;20092;-94
2021/01/15 12:35:50;;;;;;;7.03;1.48;;;10.20;99.90;;;;;;6213984;23;20112;-95
2021/01/15 12:38:22;;;;;;;5.20;1.00;;;10.20;99.90;;;;;;6214219;23;20016;-93
2021/01/15 12:41:03;;;;;;;;;;;;;;;;;;;;;
2021/01/15 12:43:46;;;;;;;;;;;;;;;;;;;;;
2021/01/15 12:46:25;;;;;;;13.32;2.15;;;10.30;99.90;;;;;;6218445;23;20504;-94
2021/01/15 12:49:12;;;;;;;8.80;1.20;;;10.30;99.90;;;;;;6096858;23;20065;-94
2021/01/15 12:51:46;;;;;;;11.60;2.17;;;10.30;99.90;;;;;;6072512;23;20331;-94
2021/01/15 12:54:18;;;;;;;7.95;1.13;;;10.40;99.90;;;;;;6073524;23;20042;-94
2021/01/15 12:57:10;;;;;;;6.32;1.50;;;10.40;99.90;;;;;;6075350;23;20022;-93
2021/01/15 12:59:49;;;;;;;2.90;0.85;;;10.40;99.90;;;;;;6072544;23;20534;-93
2021/01/15 13:02:23;;;;;;;8.70;1.30;;;10.40;99.90;;;;;;6084031;23;20026;-95
2021/01/15 13:04:59;;;;;;;6.97;0.98;;;10.40;99.90;;;;;;6102190;23;20113;-94
2021/01/15 13:07:37;;;;;;;5.35;1.00;;;10.40;99.90;;;;;;6172476;23;20456;-94
2021/01/15 13:10:06;;;;;;;4.22;0.90;;;10.40;99.90;;;;;;6192939;23;20021;-94
2021/01/15 13:12:41;;;;;;;6.50;1.20;;;10.40;99.90;;;;;;6190995;23;20016;-92
2021/01/15 13:15:12;;;;;;;7.10;1.13;;;10.40;99.90;;;;;;6194259;23;20072;-94
2021/01/15 13:17:51;;;;;;;7.43;1.35;;;10.50;99.90;;;;;;6212785;23;20016;-94
2021/01/15 13:20:19;;;;;;;5.47;0.90;;;10.40;99.90;;;;;;6198054;23;20074;-94